Time;durP1;ratioP1;P1;durP2;ratioP2;P2;SDS_P1;SDS_P2;PMS_P1;PMS_P2;Temp;Humidity;BMP_temperature;BMP_pressure;BME280_temperature;BME280_humidity;BME280_pressure;Samples;Min_cycle;Max_cycle;Signal;HPM_P1;HPM_P2
2024/01/15 00:01:54;;;;;;;36.08;18.70;;;;;;;0.42;100.00;100386.19;5021586;28;20033;-64
2024/01/15 00:04:19;;;;;;;31.70;18.38;;;;;;;0.43;100.00;100382.69;5016111;28;20383;-64
2024/01/15 00:06:45;;;;;;;29.58;17.35;;;;;;;0.43;100.00;100369.59;5020621;28;20025;-64
2024/01/15 00:09:10;;;;;;;30.20;16.50;;;;;;;0.44;100.00;100372.16;5019118;28;20026;-64
2024/01/15 00:11:35;;;;;;;29.27;16.73;;;;;;;0.45;100.00;100366.03;5019831;28;20044;-64
2024/01/15 00:14:00;;;;;;;27.23;16.63;;;;;;;0.45;100.00;100357.31;5019967;28;20030;-64
2024/01/15 00:16:26;;;;;;;26.27;15.98;;;;;;;0.44;100.00;100361.72;5020711;28;20399;-64
2024/01/15 00:18:51;;;;;;;28.83;15.43;;;;;;;0.43;100.00;100351.31;5017216;28;20483;-64
2024/01/15 00:21:16;;;;;;;26.45;14.55;;;;;;;0.43;100.00;100352.16;5020278;28;20087;-64
2024/01/15 00:23:44;;;;;;;30.08;15.10;;;;;;;0.42;100.00;100355.72;5019526;28;20472;-64
2024/01/15 00:26:09;;;;;;;24.73;13.50;;;;;;;0.42;100.00;100354.84;5019379;28;20050;-64
2024/01/15 00:28:36;;;;;;;24.92;13.48;;;;;;;0.40;100.00;100349.69;5018667;28;20057;-65
2024/01/15 00:31:01;;;;;;;22.40;13.02;;;;;;;0.39;100.00;100348.00;5017588;28;20033;-64
2024/01/15 00:33:26;;;;;;;22.63;13.15;;;;;;;0.40;100.00;100347.09;5019629;28;20014;-65
2024/01/15 00:35:52;;;;;;;21.88;11.25;;;;;;;0.38;100.00;100340.22;5019939;28;20032;-65
2024/01/15 00:38:17;;;;;;;23.17;12.02;;;;;;;0.41;100.00;100342.72;5015475;28;20101;-65
2024/01/15 00:40:42;;;;;;;19.73;9.93;;;;;;;0.40;100.00;100341.88;5020096;28;20042;-65
2024/01/15 00:43:07;;;;;;;15.15;9.23;;;;;;;0.40;100.00;100333.16;5019773;28;20044;-65
2024/01/15 00:45:33;;;;;;;15.95;8.15;;;;;;;0.40;100.00;100327.94;5020358;28;20026;-64
2024/01/15 00:48:00;;;;;;;14.70;7.57;;;;;;;0.39;100.00;100324.47;5020250;28;20018;-65
2024/01/15 00:50:26;;;;;;;13.43;5.88;;;;;;;0.38;100.00;100328.00;5019844;28;20033;-64
2024/01/15 00:52:51;;;;;;;8.98;4.93;;;;;;;0.39;100.00;100321.88;5018635;28;20061;-65
2024/01/15 00:55:16;;;;;;;13.20;4.82;;;;;;;0.39;100.00;100319.25;5017471;28;20022;-65
2024/01/15 00:57:42;;;;;;;9.38;4.18;;;;;;;0.39;100.00;100313.19;5017046;28;20490;-65
2024/01/15 01:00:08;;;;;;;7.75;3.15;;;;;;;0.40;100.00;100317.47;5019598;28;20041;-65
2024/01/15 01:02:34;;;;;;;5.18;2.50;;;;;;;0.38;100.00;100319.31;5016116;28;20028;-65
2024/01/15 01:04:59;;;;;;;6.15;2.47;;;;;;;0.38;100.00;100317.53;5021570;28;20120;-64
2024/01/15 01:07:24;;;;;;;5.25;2.28;;;;;;;0.40;100.00;100318.34;5017644;28;20036;-65
2024/01/15 01:09:51;;;;;;;5.18;2.00;;;;;;;0.40;100.00;100313.13;5020550;28;20105;-65
2024/01/15 01:12:16;;;;;;;6.43;2.00;;;;;;;0.41;100.00;100308.75;5018096;28;20482;-65
2024/01/15 01:14:42;;;;;;;5.18;1.77;;;;;;;0.40;100.00;100307.91;5019448;28;20052;-65
2024/01/15 01:17:07;;;;;;;6.38;1.60;;;;;;;0.41;100.00;100306.97;5016224;28;20056;-65
2024/01/15 01:19:32;;;;;;;2.05;1.48;;;;;;;0.40;100.00;100300.06;5017507;28;20502;-65
2024/01/15 01:21:58;;;;;;;7.07;2.00;;;;;;;0.40;100.00;100302.69;5019371;28;20460;-65
2024/01/15 01:24:23;;;;;;;4.85;1.70;;;;;;;0.41;100.00;100299.13;5023529;28;20029;-65
2024/01/15 01:26:48;;;;;;;3.35;1.63;;;;;;;0.40;100.00;100296.59;5014935;28;20585;-65
2024/01/15 01:29:14;;;;;;;6.35;1.80;;;;;;;0.39;100.00;100300.13;5019075;28;20021;-65
2024/01/15 01:31:44;;;;;;;5.03;1.90;;;;;;;0.38;100.00;100296.66;5018343;28;20022;-65
2024/01/15 01:34:09;;;;;;;2.25;2.05;;;;;;;0.38;100.00;100301.03;5015589;28;20025;-65
2024/01/15 01:36:34;;;;;;;5.55;1.73;;;;;;;0.38;100.00;100309.72;5014480;28;20036;-65
2024/01/15 01:39:00;;;;;;;2.97;1.88;;;;;;;0.38;100.00;100299.25;5014281;28;20060;-65
2024/01/15 01:41:25;;;;;;;3.40;1.85;;;;;;;0.37;100.00;100305.41;5021605;28;20072;-65
2024/01/15 01:43:50;;;;;;;6.88;2.22;;;;;;;0.37;100.00;100305.41;5021580;28;20113;-65
2024/01/15 01:46:16;;;;;;;3.30;2.10;;;;;;;0.38;100.00;100309.72;5015090;28;20030;-65
2024/01/15 01:48:41;;;;;;;3.88;2.05;;;;;;;0.37;100.00;100300.19;5014785;28;20041;-66
2024/01/15 01:51:07;;;;;;;5.00;1.98;;;;;;;0.38;100.00;100299.25;5021127;28;20042;-66
2024/01/15 01:53:35;;;;;;;5.72;2.05;;;;;;;0.39;100.00;100305.34;5002110;28;20041;-66
2024/01/15 01:56:00;;;;;;;2.55;1.90;;;;;;;0.39;100.00;100302.75;5020351;28;20490;-66
2024/01/15 01:58:27;;;;;;;6.50;2.13;;;;;;;0.38;100.00;100301.88;5018767;28;20041;-66
2024/01/15 02:00:53;;;;;;;6.03;1.75;;;;;;;0.40;100.00;100304.41;5013210;28;20030;-66
2024/01/15 02:03:19;;;;;;;2.10;1.75;;;;;;;0.39;100.00;100306.19;5017336;28;20434;-67
2024/01/15 02:05:48;;;;;;;4.50;1.80;;;;;;;0.41;100.00;100301.75;5015599;28;20368;-67
2024/01/15 02:08:13;;;;;;;3.67;1.63;;;;;;;0.43;100.00;100301.69;5017455;28;20022;-66
2024/01/15 02:10:39;;;;;;;4.00;1.88;;;;;;;0.45;100.00;100294.63;5013455;28;20395;-67
2024/01/15 02:13:04;;;;;;;6.68;1.77;;;;;;;0.49;100.00;100298.81;5016877;28;20037;-66
2024/01/15 02:15:29;;;;;;;5.15;2.10;;;;;;;0.51;100.00;100310.03;5018821;28;20034;-66
2024/01/15 02:18:02;;;;;;;2.80;1.92;;;;;;;0.52;100.00;100302.13;5016945;28;20083;-66
2024/01/15 02:20:28;;;;;;;3.80;1.73;;;;;;;0.53;100.00;100303.84;5014688;28;20040;-67
2024/01/15 02:22:53;;;;;;;7.32;1.80;;;;;;;0.55;100.00;100307.22;5015312;28;20535;-66
2024/01/15 02:25:19;;;;;;;4.68;1.50;;;;;;;0.58;100.00;100302.78;5018255;28;20092;-67
2024/01/15 02:27:45;;;;;;;5.07;1.70;;;;;;;0.56;100.00;100292.38;5020553;28;20026;-66
2024/01/15 02:30:12;;;;;;;4.45;1.67;;;;;;;0.55;100.00;100293.31;5018523;28;20065;-67
2024/01/15 02:32:38;;;;;;;5.65;1.83;;;;;;;0.56;100.00;100295.00;5012633;28;20025;-66
2024/01/15 02:35:03;;;;;;;4.95;1.80;;;;;;;0.57;100.00;100293.22;5018403;28;20029;-67
2024/01/15 02:37:29;;;;;;;8.15;1.70;;;;;;;0.55;100.00;100291.56;5014578;28;20135;-66
2024/01/15 02:39:54;;;;;;;6.97;2.00;;;;;;;0.53;100.00;100292.53;5017360;28;20026;-67
2024/01/15 02:42:19;;;;;;;4.80;1.80;;;;;;;0.51;100.00;100296.97;5017016;28;20022;-66
2024/01/15 02:44:44;;;;;;;5.53;1.33;;;;;;;0.48;100.00;100292.75;5017063;28;20030;-67
2024/01/15 02:47:10;;;;;;;4.43;1.70;;;;;;;0.44;100.00;100291.16;5014919;28;20044;-66
2024/01/15 02:49:35;;;;;;;6.00;1.50;;;;;;;0.44;100.00;100295.56;5018107;28;20026;-66
2024/01/15 02:52:00;;;;;;;3.15;1.40;;;;;;;0.40;100.00;100293.97;5015483;28;20049;-67
2024/01/15 02:54:26;;;;;;;4.80;1.50;;;;;;;0.36;100.00;100286.25;5018667;28;20026;-66
2024/01/15 02:56:51;;;;;;;5.40;1.70;;;;;;;0.34;100.00;100297.72;5022310;28;20398;-66
2024/01/15 02:59:16;;;;;;;4.97;1.70;;;;;;;0.31;100.00;100297.84;5021625;28;20034;-66
2024/01/15 03:01:41;;;;;;;3.75;1.70;;;;;;;0.28;100.00;100290.13;5022761;28;20026;-66
2024/01/15 03:04:07;;;;;;;5.75;1.58;;;;;;;0.28;100.00;100300.56;5018083;28;20025;-66
2024/01/15 03:06:32;;;;;;;6.82;1.75;;;;;;;0.25;100.00;100308.53;5022985;28;20040;-66
2024/01/15 03:08:57;;;;;;;4.75;1.92;;;;;;;0.24;100.00;100310.31;5026681;28;20552;-66
2024/01/15 03:11:22;;;;;;;5.75;1.83;;;;;;;0.22;100.00;100308.66;5018407;28;20034;-66
2024/01/15 03:13:48;;;;;;;5.05;1.90;;;;;;;0.19;100.00;100307.03;5026444;28;20467;-66
2024/01/15 03:16:14;;;;;;;4.15;1.63;;;;;;;0.18;100.00;100302.72;5019248;28;20026;-66
2024/01/15 03:18:39;;;;;;;6.82;1.90;;;;;;;0.17;100.00;100295.81;5021576;28;20030;-66
2024/01/15 03:21:05;;;;;;;5.07;1.80;;;;;;;0.16;100.00;100305.41;5019400;28;20018;-66
2024/01/15 03:23:30;;;;;;;7.28;2.05;;;;;;;0.17;100.00;100306.28;5021346;28;20387;-67
2024/01/15 03:25:56;;;;;;;6.75;2.03;;;;;;;0.17;100.00;100298.44;5017307;28;20084;-66
2024/01/15 03:28:21;;;;;;;4.97;1.73;;;;;;;0.16;100.00;100296.72;5020842;28;20029;-66
2024/01/15 03:30:46;;;;;;;7.63;1.73;;;;;;;0.15;100.00;100293.28;5017948;28;20037;-66
2024/01/15 03:33:12;;;;;;;6.85;1.67;;;;;;;0.13;100.00;100286.41;5020980;28;20100;-66
2024/01/15 03:35:37;;;;;;;6.68;2.20;;;;;;;0.12;100.00;100296.00;5018463;28;20379;-66
2024/01/15 03:38:02;;;;;;;5.28;1.98;;;;;;;0.11;100.00;100296.06;5023007;28;20026;-66
2024/01/15 03:40:28;;;;;;;12.70;2.33;;;;;;;0.11;100.00;100291.69;5019244;28;20104;-66
2024/01/15 03:42:53;;;;;;;10.07;1.98;;;;;;;0.11;100.00;100291.69;5021587;28;20052;-66
2024/01/15 03:45:19;;;;;;;6.97;2.30;;;;;;;0.11;100.00;100290.84;5017998;28;20112;-66
2024/01/15 03:47:44;;;;;;;11.52;1.90;;;;;;;0.10;100.00;100289.13;5023786;28;20026;-66
2024/01/15 03:50:09;;;;;;;12.85;2.20;;;;;;;0.10;100.00;100279.56;5018690;28;20125;-66
2024/01/15 03:52:34;;;;;;;11.15;2.53;;;;;;;0.12;100.00;100282.13;5022217;28;20483;-66
2024/01/15 03:55:01;;;;;;;6.00;2.15;;;;;;;0.12;100.00;100282.94;5020852;28;20132;-66
2024/01/15 03:57:26;;;;;;;7.47;1.98;;;;;;;0.12;100.00;100280.34;5018381;28;20485;-66
2024/01/15 03:59:52;;;;;;;8.55;2.13;;;;;;;0.14;100.00;100277.66;5018543;28;20029;-66
2024/01/15 04:02:17;;;;;;;9.70;2.85;;;;;;;0.13;100.00;100263.78;5020317;28;20025;-66
2024/01/15 04:04:43;;;;;;;7.97;2.08;;;;;;;0.15;100.00;100259.31;5019870;28;20479;-66
2024/01/15 04:07:09;;;;;;;9.98;2.00;;;;;;;0.17;100.00;100261.88;5021114;28;20048;-67
2024/01/15 04:09:35;;;;;;;10.52;2.17;;;;;;;0.16;100.00;100255.78;5022263;28;20029;-66
2024/01/15 04:12:00;;;;;;;9.48;2.10;;;;;;;0.17;100.00;100265.31;5024696;28;20034;-66
2024/01/15 04:14:25;;;;;;;6.13;2.00;;;;;;;0.19;100.00;100262.66;5024738;28;20037;-67
2024/01/15 04:16:50;;;;;;;8.35;2.00;;;;;;;0.19;100.00;100260.03;5018653;28;20033;-66
2024/01/15 04:19:16;;;;;;;6.90;1.95;;;;;;;0.19;100.00;100252.19;5018410;28;20542;-67
2024/01/15 04:21:41;;;;;;;8.93;1.90;;;;;;;0.19;100.00;100257.44;5020104;28;20025;-66
2024/01/15 04:24:06;;;;;;;5.97;2.00;;;;;;;0.19;100.00;100252.19;5017929;28;20030;-67
2024/01/15 04:26:32;;;;;;;11.80;2.58;;;;;;;0.19;100.00;100246.97;5020579;28;20037;-66
2024/01/15 04:28:58;;;;;;;4.60;1.83;;;;;;;0.19;100.00;100241.75;5022104;28;20024;-66
2024/01/15 04:31:25;;;;;;;9.38;1.80;;;;;;;0.18;100.00;100248.75;5018534;28;20060;-67
2024/01/15 04:33:50;;;;;;;6.45;1.80;;;;;;;0.18;100.00;100248.75;5022264;28;20028;-66
2024/01/15 04:36:16;;;;;;;8.55;1.95;;;;;;;0.18;100.00;100246.13;5020266;28;20033;-66
2024/01/15 04:38:41;;;;;;;3.20;1.38;;;;;;;0.20;100.00;100253.91;5017622;28;20422;-66
2024/01/15 04:41:11;;;;;;;3.65;1.95;;;;;;;0.21;100.00;100252.13;5020238;28;20033;-66
2024/01/15 04:43:36;;;;;;;6.00;1.85;;;;;;;0.20;100.00;100259.13;5021785;28;20086;-66
2024/01/15 04:46:03;;;;;;;5.28;1.60;;;;;;;0.17;100.00;100251.44;5017776;28;20029;-66
2024/01/15 04:48:28;;;;;;;5.45;1.90;;;;;;;0.15;100.00;100248.00;5021691;28;20083;-66
2024/01/15 04:50:53;;;;;;;3.50;1.70;;;;;;;0.09;100.00;100246.53;5015662;28;20116;-66
2024/01/15 04:53:18;;;;;;;3.47;1.35;;;;;;;0.09;100.00;100238.69;5018273;28;20022;-66
2024/01/15 04:55:44;;;;;;;2.05;1.30;;;;;;;0.07;100.00;100239.69;5020015;28;20032;-66
2024/01/15 04:58:09;;;;;;;1.65;1.30;;;;;;;0.06;100.00;100235.38;5004591;28;20030;-66
2024/01/15 05:00:34;;;;;;;5.20;1.38;;;;;;;0.04;100.00;100243.25;5019600;28;20382;-65
2024/01/15 05:03:00;;;;;;;2.47;1.33;;;;;;;0.01;100.00;100245.16;5016828;28;20032;-65
2024/01/15 05:05:25;;;;;;;2.80;1.50;;;;;;;0.01;100.00;100246.00;5018203;28;20463;-65
2024/01/15 05:07:51;;;;;;;2.05;1.10;;;;;;;0.01;100.00;100247.78;5017263;28;20030;-65
2024/01/15 05:10:16;;;;;;;1.27;1.10;;;;;;;0.01;100.00;100237.31;5019673;28;20034;-65
2024/01/15 05:12:41;;;;;;;2.78;1.25;;;;;;;0.02;100.00;100233.78;5015509;28;20038;-64
2024/01/15 05:15:07;;;;;;;1.83;1.50;;;;;;;0.03;100.00;100232.88;5018551;28;20033;-65
2024/01/15 05:17:32;;;;;;;3.25;1.40;;;;;;;0.04;100.00;100231.97;5014812;28;20091;-64
2024/01/15 05:19:58;;;;;;;4.32;1.40;;;;;;;0.04;100.00;100224.97;5021274;28;20029;-64
2024/01/15 05:22:24;;;;;;;4.03;1.60;;;;;;;0.05;100.00;100225.81;5017678;28;20069;-64
2024/01/15 05:24:50;;;;;;;7.13;1.65;;;;;;;0.06;100.00;100210.09;5021067;28;20051;-64
2024/01/15 05:27:15;;;;;;;2.40;1.42;;;;;;;0.05;100.00;100211.03;5013987;28;20120;-64
2024/01/15 05:29:40;;;;;;;4.80;1.80;;;;;;;0.05;100.00;100211.03;5019693;28;20035;-65
2024/01/15 05:32:05;;;;;;;4.88;1.65;;;;;;;0.05;100.00;100211.03;5020613;28;20065;-65
2024/01/15 05:34:31;;;;;;;2.58;1.80;;;;;;;0.06;100.00;100207.47;5018907;28;20420;-65
2024/01/15 05:36:56;;;;;;;4.63;1.75;;;;;;;0.07;100.00;100214.41;5017997;28;20197;-65
2024/01/15 05:39:21;;;;;;;4.15;1.88;;;;;;;0.07;100.00;100209.19;5019495;28;20021;-65
2024/01/15 05:41:46;;;;;;;2.47;1.77;;;;;;;0.09;100.00;100196.06;5016078;28;20030;-65
2024/01/15 05:44:12;;;;;;;5.65;2.35;;;;;;;0.10;100.00;100202.97;5017198;28;20021;-65
2024/01/15 05:46:37;;;;;;;7.07;2.30;;;;;;;0.10;100.00;100209.06;5014314;28;20026;-65
2024/01/15 05:49:02;;;;;;;6.60;2.00;;;;;;;0.11;100.00;100212.50;5021949;28;20449;-65
2024/01/15 05:51:27;;;;;;;4.38;1.80;;;;;;;0.11;100.00;100202.06;5011995;28;20053;-65
2024/01/15 05:53:53;;;;;;;5.70;2.10;;;;;;;0.11;100.00;100200.28;5020036;28;20027;-65
2024/01/15 05:56:18;;;;;;;6.43;1.80;;;;;;;0.12;100.00;100201.16;5018034;28;20038;-65
2024/01/15 05:58:43;;;;;;;10.35;2.15;;;;;;;0.11;100.00;100197.69;5018539;28;20058;-64
2024/01/15 06:01:09;;;;;;;9.93;1.95;;;;;;;0.12;100.00;100199.38;5017936;28;20502;-64
2024/01/15 06:03:34;;;;;;;7.32;2.20;;;;;;;0.12;100.00;100194.16;5017084;28;20037;-65
2024/01/15 06:06:00;;;;;;;8.60;2.30;;;;;;;0.11;100.00;100195.06;5021273;28;20437;-64
2024/01/15 06:08:26;;;;;;;6.18;2.05;;;;;;;0.14;100.00;100196.72;5020966;28;20039;-64
2024/01/15 06:10:51;;;;;;;8.43;2.35;;;;;;;0.13;100.00;100192.41;5017943;28;20068;-64
2024/01/15 06:13:17;;;;;;;6.70;1.85;;;;;;;0.10;100.00;100188.19;5018642;28;20026;-64
2024/01/15 06:15:42;;;;;;;6.13;1.85;;;;;;;0.12;100.00;100188.09;5022276;28;20482;-64
2024/01/15 06:18:07;;;;;;;6.93;2.15;;;;;;;0.12;100.00;100188.09;5014292;28;20034;-64
2024/01/15 06:20:32;;;;;;;6.50;1.95;;;;;;;0.11;100.00;100179.41;5017492;28;20025;-64
2024/01/15 06:22:58;;;;;;;4.97;1.70;;;;;;;0.11;100.00;100192.47;5019304;28;20030;-64
2024/01/15 06:25:23;;;;;;;3.85;1.80;;;;;;;0.13;100.00;100195.88;5021377;28;20355;-64
2024/01/15 06:27:48;;;;;;;5.85;2.08;;;;;;;0.12;100.00;100191.56;5026566;28;20026;-64
2024/01/15 06:30:14;;;;;;;4.03;1.70;;;;;;;0.15;100.00;100190.56;5024684;28;20526;-66
2024/01/15 06:32:39;;;;;;;3.80;1.60;;;;;;;0.17;100.00;100186.97;5023014;28;20037;-64
2024/01/15 06:35:05;;;;;;;3.00;1.55;;;;;;;0.20;100.00;100185.13;5024786;28;20025;-64
2024/01/15 06:37:32;;;;;;;2.47;1.45;;;;;;;0.22;100.00;100183.31;5022744;28;20146;-64
2024/01/15 06:39:57;;;;;;;2.55;1.75;;;;;;;0.22;100.00;100186.78;5022451;28;20026;-64
2024/01/15 06:42:23;;;;;;;2.40;1.60;;;;;;;0.24;100.00;100192.78;5024131;28;20430;-64
2024/01/15 06:44:48;;;;;;;1.67;1.58;;;;;;;0.25;100.00;100188.41;5022960;28;20040;-64
2024/01/15 06:47:14;;;;;;;1.90;1.70;;;;;;;0.23;100.00;100187.63;5020376;28;20026;-64
2024/01/15 06:49:39;;;;;;;2.45;2.00;;;;;;;0.23;100.00;100195.47;5019694;28;20063;-64
2024/01/15 06:52:06;;;;;;;1.98;1.50;;;;;;;0.21;100.00;100192.06;5022345;28;20450;-63
2024/01/15 06:54:31;;;;;;;1.80;1.60;;;;;;;0.20;100.00;100191.22;5019704;28;20045;-63
2024/01/15 06:56:56;;;;;;;1.70;1.60;;;;;;;0.20;100.00;100177.31;5023074;28;20471;-63
2024/01/15 06:59:22;;;;;;;1.58;1.48;;;;;;;0.17;100.00;100181.75;5020657;28;20450;-63
2024/01/15 07:01:47;;;;;;;2.30;1.80;;;;;;;0.17;100.00;100183.53;5021127;28;20120;-63
2024/01/15 07:04:13;;;;;;;2.08;1.80;;;;;;;0.16;100.00;100182.66;5022296;28;20029;-63
2024/01/15 07:06:38;;;;;;;1.83;1.67;;;;;;;0.16;100.00;100182.66;5019561;28;20474;-63
2024/01/15 07:09:04;;;;;;;1.90;1.80;;;;;;;0.15;100.00;100182.72;5014327;28;20466;-63
2024/01/15 07:11:29;;;;;;;1.95;1.83;;;;;;;0.15;100.00;100185.34;5017891;28;20030;-63
2024/01/15 07:13:54;;;;;;;2.10;1.83;;;;;;;0.14;100.00;100187.09;5018440;28;20045;-63
2024/01/15 07:16:19;;;;;;;2.65;2.17;;;;;;;0.14;100.00;100181.88;5018282;28;20104;-63
2024/01/15 07:18:45;;;;;;;2.13;1.92;;;;;;;0.14;100.00;100184.50;5019694;28;20441;-64
2024/01/15 07:21:10;;;;;;;2.00;1.90;;;;;;;0.14;100.00;100187.09;5007302;28;20537;-64
2024/01/15 07:23:35;;;;;;;2.92;2.38;;;;;;;0.15;100.00;100190.56;5016303;28;20026;-63
2024/01/15 07:26:00;;;;;;;2.05;1.95;;;;;;;0.13;100.00;100193.28;5022325;28;20053;-64
2024/01/15 07:28:28;;;;;;;3.75;2.10;;;;;;;0.11;100.00;100184.63;5022462;28;20037;-64
2024/01/15 07:30:54;;;;;;;2.47;2.17;;;;;;;0.10;100.00;100182.94;5021735;28;20044;-64
2024/01/15 07:33:19;;;;;;;2.30;2.20;;;;;;;0.09;100.00;100189.06;5021549;28;20491;-63
2024/01/15 07:35:44;;;;;;;2.75;2.60;;;;;;;0.08;100.00;100184.75;5019792;28;20117;-63
2024/01/15 07:38:11;;;;;;;2.95;2.65;;;;;;;0.05;100.00;100187.53;5002948;28;20367;-63
2024/01/15 07:40:37;;;;;;;3.10;2.88;;;;;;;0.03;100.00;100181.50;5017843;28;20088;-63
2024/01/15 07:43:02;;;;;;;3.83;3.53;;;;;;;-0.01;100.00;100186.00;5022633;28;20030;-63
2024/01/15 07:45:28;;;;;;;4.53;3.70;;;;;;;-0.04;100.00;100187.91;5019836;28;20080;-63
2024/01/15 07:47:53;;;;;;;5.40;4.20;;;;;;;-0.06;100.00;100194.97;5023279;28;20025;-63
2024/01/15 07:50:18;;;;;;;5.53;4.60;;;;;;;-0.08;100.00;100191.59;5017515;28;20553;-63
2024/01/15 07:52:44;;;;;;;5.05;4.20;;;;;;;-0.11;100.00;100196.94;5016373;28;20061;-63
2024/01/15 07:55:09;;;;;;;5.85;4.93;;;;;;;-0.15;100.00;100200.56;5017182;28;20387;-63
2024/01/15 07:57:35;;;;;;;5.88;5.10;;;;;;;-0.16;100.00;100201.50;5015479;28;20133;-63
2024/01/15 08:00:01;;;;;;;6.28;5.35;;;;;;;-0.17;100.00;100211.06;5019698;28;20029;-63
2024/01/15 08:02:27;;;;;;;5.85;5.35;;;;;;;-0.17;100.00;100210.22;5021132;28;20402;-63
2024/01/15 08:04:52;;;;;;;5.90;5.30;;;;;;;-0.19;100.00;100213.75;5017788;28;20118;-63
2024/01/15 08:07:17;;;;;;;6.30;5.78;;;;;;;-0.19;100.00;100210.28;5018341;28;20077;-63
2024/01/15 08:09:43;;;;;;;6.57;5.10;;;;;;;-0.19;100.00;100213.75;5021001;28;20064;-63
2024/01/15 08:12:09;;;;;;;5.78;5.03;;;;;;;-0.18;100.00;100214.63;5015729;28;20133;-63
2024/01/15 08:14:35;;;;;;;5.85;4.63;;;;;;;-0.17;100.00;100218.06;5016752;28;20454;-63
2024/01/15 08:17:01;;;;;;;5.65;4.60;;;;;;;-0.19;100.00;100221.56;5017750;28;20053;-63
2024/01/15 08:19:26;;;;;;;5.75;4.22;;;;;;;-0.16;100.00;100222.38;5021806;28;20391;-63
2024/01/15 08:21:53;;;;;;;4.50;3.88;;;;;;;-0.17;100.00;100216.28;5017570;28;20076;-63
2024/01/15 08:24:18;;;;;;;4.85;3.97;;;;;;;-0.16;100.00;100220.63;5018415;28;20475;-63
2024/01/15 08:26:43;;;;;;;4.82;3.70;;;;;;;-0.15;100.00;100221.44;5018295;28;20038;-63
2024/01/15 08:29:09;;;;;;;5.50;3.45;;;;;;;-0.16;100.00;100223.22;5020222;28;20386;-63
2024/01/15 08:31:34;;;;;;;4.80;3.33;;;;;;;-0.17;100.00;100213.69;5019417;28;20383;-63
2024/01/15 08:34:01;;;;;;;3.47;3.17;;;;;;;-0.19;100.00;100221.56;5021608;28;20064;-63
2024/01/15 08:36:28;;;;;;;3.20;3.00;;;;;;;-0.20;100.00;100224.25;5017104;28;20025;-63
2024/01/15 08:38:53;;;;;;;3.00;2.78;;;;;;;-0.19;100.00;100224.19;5020025;28;20378;-63
2024/01/15 08:41:18;;;;;;;2.92;2.40;;;;;;;-0.18;100.00;100227.66;5020289;28;20030;-63
2024/01/15 08:43:44;;;;;;;2.65;2.10;;;;;;;-0.19;100.00;100224.19;5013994;28;20376;-63
2024/01/15 08:46:09;;;;;;;4.90;2.20;;;;;;;-0.19;100.00;100234.63;5017894;28;20037;-63
2024/01/15 08:48:34;;;;;;;3.08;2.10;;;;;;;-0.20;100.00;100225.13;5022731;28;20108;-63
2024/01/15 08:50:59;;;;;;;2.20;2.10;;;;;;;-0.21;100.00;100223.41;5018066;28;20060;-63
2024/01/15 08:53:25;;;;;;;3.08;1.73;;;;;;;-0.22;100.00;100221.72;5018842;28;20010;-63
2024/01/15 08:55:51;;;;;;;4.80;2.38;;;;;;;-0.21;100.00;100218.19;5017917;28;20061;-63
2024/01/15 08:58:16;;;;;;;3.00;1.95;;;;;;;-0.20;100.00;100222.50;5020030;28;20029;-63
2024/01/15 09:00:41;;;;;;;5.65;1.80;;;;;;;-0.19;100.00;100224.19;5013135;28;20402;-63
2024/01/15 09:03:08;;;;;;;4.93;1.80;;;;;;;-0.18;100.00;100227.66;5018565;28;20460;-62
2024/01/15 09:05:33;;;;;;;3.92;1.80;;;;;;;-0.17;100.00;100237.19;5019810;28;20061;-63
2024/01/15 09:07:58;;;;;;;4.82;1.83;;;;;;;-0.17;100.00;100221.50;5011871;28;20057;-63
2024/01/15 09:10:24;;;;;;;3.70;1.50;;;;;;;-0.17;100.00;100212.84;5017607;28;20493;-63
2024/01/15 09:12:49;;;;;;;5.68;1.70;;;;;;;-0.15;100.00;100237.97;5018927;28;20033;-63
2024/01/15 09:15:15;;;;;;;4.75;1.70;;;;;;;-0.17;100.00;100229.34;5019535;28;20026;-63
2024/01/15 09:17:40;;;;;;;6.43;1.92;;;;;;;-0.16;100.00;100227.59;5008240;28;20129;-63
2024/01/15 09:20:06;;;;;;;4.70;2.13;;;;;;;-0.15;100.00;100248.41;5020258;28;20120;-63
2024/01/15 09:22:32;;;;;;;5.07;2.80;;;;;;;-0.14;100.00;100234.44;5015711;28;20108;-63
2024/01/15 09:24:58;;;;;;;10.88;5.60;;;;;;;-0.13;100.00;100233.53;5022507;28;20120;-63
2024/01/15 09:27:25;;;;;;;23.95;13.45;;;;;;;-0.12;100.00;100235.22;5020055;28;20474;-62
2024/01/15 09:29:51;;;;;;;29.52;18.15;;;;;;;-0.09;100.00;100234.25;5016400;28;20068;-63
2024/01/15 09:32:17;;;;;;;24.25;12.95;;;;;;;-0.09;100.00;100229.03;5018625;28;20065;-63
2024/01/15 09:34:42;;;;;;;14.27;7.13;;;;;;;-0.09;100.00;100227.25;5014478;28;20036;-63
2024/01/15 09:37:07;;;;;;;28.33;12.73;;;;;;;-0.10;100.00;100219.50;5018917;28;20022;-63
2024/01/15 09:39:33;;;;;;;15.93;7.30;;;;;;;-0.08;100.00;100218.53;5017774;28;20017;-63
2024/01/15 09:41:59;;;;;;;15.32;7.38;;;;;;;-0.08;100.00;100226.34;5016791;28;20030;-63
2024/01/15 09:44:26;;;;;;;24.92;11.48;;;;;;;-0.07;100.00;100224.59;5014489;28;20017;-63
2024/01/15 09:46:52;;;;;;;17.65;8.98;;;;;;;-0.07;100.00;100233.25;5008815;28;20083;-63
2024/01/15 09:49:17;;;;;;;10.75;5.22;;;;;;;-0.06;100.00;100239.34;5001536;28;20026;-63
2024/01/15 09:51:44;;;;;;;8.20;4.35;;;;;;;-0.05;100.00;100254.06;5013998;28;20041;-63
2024/01/15 09:54:13;;;;;;;6.47;3.38;;;;;;;-0.02;100.00;100256.56;5019778;28;20033;-63
2024/01/15 09:56:38;;;;;;;10.80;5.70;;;;;;;-0.01;100.00;100246.06;5020181;28;20480;-63
2024/01/15 09:59:04;;;;;;;6.60;2.47;;;;;;;-0.01;100.00;100258.28;5014995;28;20037;-63
2024/01/15 10:01:31;;;;;;;19.02;9.02;;;;;;;-0.02;100.00;100252.22;5018435;28;20018;-63
2024/01/15 10:03:56;;;;;;;11.85;5.88;;;;;;;-0.01;100.00;100260.88;5014711;28;20037;-63
2024/01/15 10:06:22;;;;;;;7.60;3.90;;;;;;;-0.01;100.00;100259.13;5015425;28;20111;-63
2024/01/15 10:08:51;;;;;;;5.63;3.30;;;;;;;0.06;100.00;100259.69;5014536;28;20034;-63
2024/01/15 10:11:17;;;;;;;12.38;5.38;;;;;;;0.12;100.00;100259.44;5017474;28;20370;-63
2024/01/15 10:13:46;;;;;;;4.00;2.30;;;;;;;0.15;100.00;100261.06;5014862;28;20033;-63
2024/01/15 10:16:11;;;;;;;7.53;3.05;;;;;;;0.19;100.00;100254.81;5014796;28;20115;-63
2024/01/15 10:18:37;;;;;;;5.47;2.47;;;;;;;0.22;100.00;100252.06;5020053;28;20037;-63
2024/01/15 10:21:03;;;;;;;21.63;11.38;;;;;;;0.23;100.00;100245.91;5015867;28;20156;-63
2024/01/15 10:23:29;;;;;;;13.77;7.82;;;;;;;0.28;100.00;100235.28;5019029;28;20026;-63
2024/01/15 10:25:56;;;;;;;8.32;4.88;;;;;;;0.34;100.00;100242.84;5018830;28;20044;-63
2024/01/15 10:28:22;;;;;;;8.23;4.68;;;;;;;0.39;100.00;100240.88;5012967;28;20144;-63
2024/01/15 10:30:52;;;;;;;8.90;3.70;;;;;;;0.46;100.00;100239.69;5020067;28;20120;-63
2024/01/15 10:33:21;;;;;;;10.00;4.28;;;;;;;0.53;100.00;100240.25;5015729;28;20384;-63
2024/01/15 10:35:47;;;;;;;7.07;3.08;;;;;;;0.61;100.00;100243.38;5016129;28;20482;-63
2024/01/15 10:38:12;;;;;;;8.68;3.53;;;;;;;0.62;100.00;100247.69;5013135;28;20026;-63
2024/01/15 10:40:37;;;;;;;15.02;8.65;;;;;;;0.61;100.00;100247.78;5016578;28;20034;-63
2024/01/15 10:43:03;;;;;;;10.23;5.13;;;;;;;0.60;100.00;100243.44;5013959;28;20113;-63
2024/01/15 10:45:28;;;;;;;4.00;3.20;;;;;;;0.59;100.00;100239.16;5018528;28;20036;-63
2024/01/15 10:47:58;;;;;;;5.68;5.10;;;;;;;0.61;100.00;100243.38;5014976;28;20707;-63
2024/01/15 10:50:24;;;;;;;9.05;4.50;;;;;;;0.63;100.00;100244.16;5012193;28;20036;-63
2024/01/15 10:52:50;;;;;;;6.25;5.43;;;;;;;0.69;100.00;100245.66;5015704;28;20064;-63
2024/01/15 10:55:17;;;;;;;7.60;5.65;;;;;;;0.71;100.00;100244.66;5018094;28;20407;-63
2024/01/15 10:57:45;;;;;;;7.95;5.20;;;;;;;0.73;100.00;100244.59;5010443;28;20034;-63
2024/01/15 11:00:14;;;;;;;18.25;10.07;;;;;;;0.73;100.00;100247.19;5019826;28;20026;-63
2024/01/15 11:02:40;;;;;;;11.50;4.93;;;;;;;0.72;100.00;100240.31;5012379;28;20552;-63
2024/01/15 11:05:05;;;;;;;7.03;3.63;;;;;;;0.70;100.00;100237.75;5016781;28;20050;-62
2024/01/15 11:07:31;;;;;;;3.65;3.00;;;;;;;0.68;100.00;100236.97;5017514;28;20034;-63
2024/01/15 11:10:00;;;;;;;6.30;2.25;;;;;;;0.68;100.00;100247.44;5019540;28;20029;-63
2024/01/15 11:12:25;;;;;;;4.90;2.05;;;;;;;0.70;100.00;100244.72;5018128;28;20535;-63
2024/01/15 11:14:50;;;;;;;5.85;2.13;;;;;;;0.76;100.00;100254.06;5021882;28;20037;-63